Impacts METAR Board
IDs:

KEWR - Newark Intl, NJ, US

Updated at: 1100 UTC 09 Jul 2020
Potential Impact None Slight Moderate High
Time 08/23Z 09/00Z 09/01Z 09/02Z 09/03Z 09/04Z 09/05Z 09/06Z 09/07Z 09/08Z 09/09Z 09/10Z 09/11Z
Temp79 79 78 78 77 76 76 75 75 75 74 74 75
Dewpt72 72 73 74 73 73 72 72 72 72 71 72 73
Altim29.94 29.94 29.95 29.96 29.97 29.96 29.97 29.97 29.96 29.97 29.97 29.98 29.99
VIS10 10 10 10 10 10 10 10 10 10 10 9 7
CIG170 250 180 230 260 260 260 250 250 250 250 -- 7
CoverBKNBKNBKNBKNBKNBKNBKNBKNBKNBKNBKNSCTBKN
FltCatVFRVFRVFRVFRVFRVFRVFRVFRVFRVFRVFRVFRIFR
WX--------------------------
WDir000014020019018017023002500
WSpd0 0 0 0 3 6 5 4 3 3 0 3 0
WGst-- -- -- -- -- -- -- -- -- -- -- -- --
Raw hourly METARs
KEWR 082251Z 00000KT 10SM FEW040 SCT080 SCT110 BKN170 BKN250 26/22 A2994 RMK AO2 SLP140 T02610222
KEWR 082351Z 00000KT 10SM FEW040 FEW100 SCT140 BKN250 26/22 A2994 RMK AO2 SLP139 60115 T02610222 10283 20222 56012
KEWR 090051Z 00000KT 10SM FEW045 SCT140 BKN180 BKN250 26/23 A2995 RMK AO2 SLP140 T02560228
KEWR 090151Z 00000KT 10SM FEW050 SCT170 BKN230 BKN260 26/23 A2996 RMK AO2 SLP145 T02560233
KEWR 090251Z 14003KT 10SM FEW045 FEW170 SCT230 BKN260 25/23 A2997 RMK AO2 SLP147 T02500228 53007
KEWR 090351Z 20006KT 10SM FEW170 BKN260 24/23 A2996 RMK AO2 SLP146 T02440228
KEWR 090451Z 19005KT 10SM FEW180 BKN260 24/22 A2997 RMK AO2 SLP147 T02440222 403000222
KEWR 090551Z 18004KT 10SM BKN250 24/22 A2997 RMK AO2 SLP147 T02390222 10261 20239 56001
KEWR 090651Z 17003KT 10SM FEW030 BKN250 24/22 A2996 RMK AO2 SLP145 T02390222
KEWR 090751Z 23003KT 10SM FEW020 FEW200 BKN250 24/22 A2997 RMK AO2 SLP147 T02390222
KEWR 090851Z 00000KT 10SM FEW005 FEW020 BKN250 23/22 A2997 RMK AO2 SLP148 FU FEW005 FU PLUME S DRFTG NE T02330217 53002
KEWR 090951Z 25003KT 9SM FEW015 FEW180 SCT250 23/22 A2998 RMK AO2 SLP152 T02330222
KEWR 091051Z 00000KT 7SM FEW003 BKN007 BKN250 24/23 A2999 RMK AO2 SLP156 T02390228



Page loaded:  11:43 UTC  |   04:43 AM Pacific  |   05:43 AM Mountain  |   06:43 AM Central  |   07:43 AM Eastern

 

ADVISORIES

FORECASTS

FORECASTS

OBSERVATIONS

USER TOOLS

ABOUT US